Time;durP1;ratioP1;P1;durP2;ratioP2;P2;SDS_P1;SDS_P2;PMS_P1;PMS_P2;Temp;Humidity;BMP_temperature;BMP_pressure;BME280_temperature;BME280_humidity;BME280_pressure;Samples;Min_cycle;Max_cycle;Signal;HPM_P1;HPM_P2
2021/05/10 00:02:25;;;;;;;2.37;2.17;;;17.90;99.90;;;;;;5053354;28;20201;-63
2021/05/10 00:04:51;;;;;;;2.47;2.00;;;17.90;99.90;;;;;;5053161;28;20413;-61
2021/05/10 00:07:16;;;;;;;2.90;2.07;;;18.10;99.90;;;;;;5053349;28;20181;-61
2021/05/10 00:09:42;;;;;;;2.23;1.90;;;18.20;99.90;;;;;;5049500;28;20238;-61
2021/05/10 00:12:08;;;;;;;2.37;2.13;;;18.30;99.90;;;;;;5052829;28;20198;-61
2021/05/10 00:14:44;;;;;;;2.07;1.87;;;18.30;99.90;;;;;;5053077;28;20189;-61
2021/05/10 00:17:10;;;;;;;2.13;1.93;;;18.30;99.90;;;;;;5053314;28;20422;-61
2021/05/10 00:19:37;;;;;;;2.53;2.00;;;18.30;99.90;;;;;;5052404;28;20433;-61
2021/05/10 00:22:02;;;;;;;2.90;1.63;;;18.30;99.90;;;;;;5052993;28;20417;-61
2021/05/10 00:24:28;;;;;;;3.03;2.83;;;18.20;99.90;;;;;;5053102;28;20774;-61
2021/05/10 00:26:54;;;;;;;3.87;2.07;;;18.20;99.90;;;;;;5053001;28;20190;-62
2021/05/10 00:29:20;;;;;;;3.47;2.43;;;18.20;99.90;;;;;;5060935;28;20572;-62
2021/05/10 00:31:46;;;;;;;4.40;2.00;;;18.30;99.90;;;;;;5072992;28;20200;-62
2021/05/10 00:34:13;;;;;;;2.90;2.07;;;18.20;99.90;;;;;;5072283;28;20176;-62
2021/05/10 00:36:39;;;;;;;2.70;1.77;;;18.20;99.90;;;;;;5072745;28;20451;-62
2021/05/10 00:39:05;;;;;;;2.30;2.10;;;18.20;99.90;;;;;;5072869;28;20448;-62
2021/05/10 00:41:31;;;;;;;2.73;2.27;;;18.10;99.90;;;;;;5072975;28;20431;-62
2021/05/10 00:43:56;;;;;;;3.60;2.60;;;18.10;99.90;;;;;;5073108;28;20396;-62
2021/05/10 00:46:22;;;;;;;2.10;1.90;;;18.00;99.90;;;;;;5072954;28;20170;-61
2021/05/10 00:48:48;;;;;;;4.33;1.93;;;17.90;99.90;;;;;;5057898;28;20179;-61
2021/05/10 00:51:14;;;;;;;3.10;2.47;;;17.70;99.90;;;;;;5053861;28;20429;-61
2021/05/10 00:53:39;;;;;;;2.43;2.23;;;17.70;99.90;;;;;;5052928;28;20182;-60
2021/05/10 00:56:05;;;;;;;4.03;2.00;;;17.60;99.90;;;;;;5064636;28;20329;-60
2021/05/10 00:58:32;;;;;;;3.20;2.00;;;17.50;99.90;;;;;;5063566;28;20185;-62
2021/05/10 01:00:58;;;;;;;2.10;1.90;;;17.50;99.90;;;;;;5052651;28;20514;-61
2021/05/10 01:03:24;;;;;;;2.07;1.97;;;17.50;99.90;;;;;;5053308;28;20860;-59
2021/05/10 01:05:50;;;;;;;3.40;2.20;;;17.50;99.90;;;;;;5052957;28;20173;-61
2021/05/10 01:08:15;;;;;;;2.67;2.10;;;17.40;99.90;;;;;;5052974;28;20415;-60
2021/05/10 01:10:41;;;;;;;5.40;2.37;;;17.20;99.90;;;;;;5052964;28;20192;-62
2021/05/10 01:13:07;;;;;;;2.63;2.10;;;17.20;99.90;;;;;;5052638;28;20698;-61
2021/05/10 01:15:32;;;;;;;2.23;2.03;;;17.20;99.90;;;;;;5053223;28;20580;-61
2021/05/10 01:17:58;;;;;;;2.43;1.70;;;17.10;99.90;;;;;;5052295;28;20415;-61
2021/05/10 01:20:24;;;;;;;2.60;1.70;;;17.20;99.90;;;;;;5052679;28;20214;-61
2021/05/10 01:22:55;;;;;;;2.10;2.00;;;17.20;99.90;;;;;;5052829;28;20553;-62
2021/05/10 01:25:29;;;;;;;2.17;1.93;;;17.20;99.90;;;;;;5052875;28;20458;-61
2021/05/10 01:27:56;;;;;;;2.10;1.90;;;17.20;99.90;;;;;;5048054;28;21182;-59
2021/05/10 01:30:31;;;;;;;2.03;1.70;;;17.20;99.90;;;;;;5052218;28;20459;-61
2021/05/10 01:32:57;;;;;;;2.50;1.80;;;17.10;99.90;;;;;;5032574;28;20936;-62
2021/05/10 01:35:30;;;;;;;2.40;2.20;;;17.20;99.90;;;;;;5032251;28;20433;-61
2021/05/10 01:37:57;;;;;;;3.00;2.13;;;17.20;99.90;;;;;;5032579;28;20437;-62
2021/05/10 01:40:23;;;;;;;2.57;1.80;;;17.20;99.90;;;;;;5032433;28;20995;-61
2021/05/10 01:42:49;;;;;;;2.20;2.00;;;17.20;99.90;;;;;;5032234;28;20470;-61
2021/05/10 01:45:15;;;;;;;2.90;2.30;;;17.10;99.90;;;;;;5033261;28;20412;-61
2021/05/10 01:47:41;;;;;;;1.83;1.73;;;17.00;99.90;;;;;;5050844;28;20499;-62
2021/05/10 01:50:15;;;;;;;2.40;2.20;;;16.90;99.90;;;;;;5055383;28;20329;-61
2021/05/10 01:52:41;;;;;;;2.27;2.10;;;16.90;99.90;;;;;;5057337;28;20496;-62
2021/05/10 01:55:07;;;;;;;3.53;2.17;;;16.70;99.90;;;;;;5075907;28;20420;-62
2021/05/10 01:57:33;;;;;;;2.30;2.17;;;16.60;99.90;;;;;;5075281;28;20450;-62
2021/05/10 01:59:59;;;;;;;3.10;2.30;;;16.60;99.90;;;;;;5064874;28;21029;-62
2021/05/10 02:02:26;;;;;;;5.23;2.10;;;16.70;99.90;;;;;;5048208;28;20508;-63
2021/05/10 02:05:12;;;;;;;2.57;2.27;;;16.70;99.90;;;;;;5055669;28;20182;-62
2021/05/10 02:07:46;;;;;;;2.90;2.50;;;16.70;99.90;;;;;;5034110;28;20434;-62
2021/05/10 02:10:21;;;;;;;2.77;2.20;;;16.60;99.90;;;;;;5054398;28;20811;-63
2021/05/10 02:12:57;;;;;;;4.17;2.20;;;16.50;99.90;;;;;;5055337;28;20407;-61
2021/05/10 02:15:24;;;;;;;2.00;1.83;;;16.40;99.90;;;;;;5049589;28;20415;-60
2021/05/10 02:17:50;;;;;;;2.53;2.33;;;16.30;99.90;;;;;;5054983;28;20409;-62
2021/05/10 02:20:18;;;;;;;2.00;1.90;;;16.40;99.90;;;;;;5054997;28;20777;-62
2021/05/10 02:23:00;;;;;;;2.60;2.07;;;16.50;99.90;;;;;;5055434;28;20415;-62
2021/05/10 02:25:31;;;;;;;2.80;2.30;;;16.50;99.90;;;;;;5055561;28;20405;-62
2021/05/10 02:27:57;;;;;;;7.13;2.53;;;16.30;99.90;;;;;;5051784;28;20422;-62
2021/05/10 02:30:25;;;;;;;2.63;2.07;;;16.30;99.90;;;;;;5046512;28;20463;-62
2021/05/10 02:32:52;;;;;;;3.00;2.20;;;16.40;99.90;;;;;;5034751;28;20435;-62
2021/05/10 02:35:19;;;;;;;2.77;2.23;;;16.40;99.90;;;;;;5034800;28;20420;-61
2021/05/10 02:37:45;;;;;;;3.47;2.33;;;16.50;99.90;;;;;;5035126;28;20542;-61
2021/05/10 02:40:12;;;;;;;3.20;2.00;;;16.60;99.90;;;;;;5035182;28;20511;-59
2021/05/10 02:42:37;;;;;;;2.40;2.17;;;16.50;99.90;;;;;;5034815;28;20417;-61
2021/05/10 02:45:05;;;;;;;2.40;2.20;;;16.40;99.90;;;;;;5035179;28;20433;-61
2021/05/10 02:47:31;;;;;;;2.60;2.03;;;16.20;99.90;;;;;;5038102;28;20184;-61
2021/05/10 02:49:56;;;;;;;2.70;2.17;;;16.30;99.90;;;;;;5054290;28;20478;-61
2021/05/10 02:52:22;;;;;;;2.43;2.10;;;16.40;99.90;;;;;;5054423;28;20196;-61
2021/05/10 02:54:49;;;;;;;3.47;2.13;;;16.50;99.90;;;;;;5057737;28;20406;-60
2021/05/10 02:57:15;;;;;;;3.37;2.00;;;16.60;99.90;;;;;;5053637;28;20404;-61
2021/05/10 02:59:42;;;;;;;3.00;2.10;;;16.60;99.90;;;;;;5053935;28;20444;-62
2021/05/10 03:02:08;;;;;;;3.47;2.23;;;16.50;99.90;;;;;;5054475;28;20415;-62
2021/05/10 03:04:33;;;;;;;2.60;2.00;;;16.50;99.90;;;;;;5054571;28;20418;-61
2021/05/10 03:06:59;;;;;;;3.00;2.40;;;16.50;99.90;;;;;;5054127;28;20182;-61
2021/05/10 03:09:24;;;;;;;6.00;2.80;;;16.50;99.90;;;;;;5054399;28;20562;-62
2021/05/10 03:11:50;;;;;;;2.60;2.40;;;16.60;99.90;;;;;;5054457;28;20307;-62
2021/05/10 03:14:15;;;;;;;3.37;2.43;;;16.60;99.90;;;;;;5054589;28;20170;-62
2021/05/10 03:16:41;;;;;;;2.50;2.30;;;16.60;99.90;;;;;;5053618;28;20172;-61
2021/05/10 03:19:10;;;;;;;3.33;2.17;;;16.60;99.90;;;;;;5050979;28;20213;-60
2021/05/10 03:21:39;;;;;;;2.97;2.03;;;16.50;99.90;;;;;;5054023;28;20711;-62
2021/05/10 03:24:06;;;;;;;2.30;2.10;;;16.40;99.90;;;;;;5054074;28;20891;-61
2021/05/10 03:26:33;;;;;;;3.57;2.40;;;16.40;99.90;;;;;;5053971;28;20415;-62
2021/05/10 03:28:59;;;;;;;2.80;2.50;;;16.30;99.90;;;;;;5053527;28;21051;-60
2021/05/10 03:31:25;;;;;;;2.57;2.13;;;16.20;99.90;;;;;;5054093;28;20410;-62
2021/05/10 03:33:50;;;;;;;3.97;2.30;;;16.40;99.90;;;;;;5054383;28;20218;-60
2021/05/10 03:36:16;;;;;;;3.10;2.10;;;16.40;99.90;;;;;;5053813;28;20415;-60
2021/05/10 03:38:42;;;;;;;2.17;1.87;;;16.40;99.90;;;;;;5054079;28;20196;-61
2021/05/10 03:41:07;;;;;;;2.93;1.87;;;16.50;99.90;;;;;;5053991;28;20650;-62
2021/05/10 03:43:33;;;;;;;2.23;2.03;;;16.60;99.90;;;;;;5053537;28;20171;-62
2021/05/10 03:45:58;;;;;;;1.93;1.83;;;16.80;99.90;;;;;;5053694;28;20174;-62
2021/05/10 03:48:24;;;;;;;3.73;2.10;;;16.90;99.90;;;;;;5053792;28;20508;-59
2021/05/10 03:50:49;;;;;;;3.60;1.90;;;17.00;99.90;;;;;;5053057;28;20225;-61
2021/05/10 03:53:15;;;;;;;2.13;1.93;;;17.00;99.90;;;;;;5059814;28;20191;-61
2021/05/10 03:55:41;;;;;;;3.03;1.93;;;17.10;99.90;;;;;;5066595;28;20177;-61
2021/05/10 03:58:07;;;;;;;2.20;1.97;;;17.10;99.90;;;;;;5048684;28;21019;-61
2021/05/10 04:00:32;;;;;;;2.70;1.90;;;17.30;99.90;;;;;;5053532;28;20287;-62
2021/05/10 04:02:59;;;;;;;2.30;2.10;;;17.40;99.90;;;;;;5052844;28;20412;-59
2021/05/10 04:15:53;;;;;;;2.60;2.03;;;17.80;99.90;;;;;;5054170;28;20806;-59
2021/05/10 04:18:21;;;;;;;2.83;2.63;;;17.90;99.90;;;;;;5053482;28;20439;-59
2021/05/10 04:20:47;;;;;;;2.70;2.13;;;17.70;99.90;;;;;;5053031;28;20214;-62
2021/05/10 04:23:16;;;;;;;3.20;1.73;;;17.70;99.90;;;;;;5053097;28;20472;-61
2021/05/10 04:25:43;;;;;;;2.80;2.03;;;17.80;99.70;;;;;;5053354;28;20420;-60
2021/05/10 04:28:08;;;;;;;2.47;1.93;;;18.00;98.70;;;;;;5052539;28;20425;-61
2021/05/10 04:30:34;;;;;;;2.10;1.90;;;18.20;97.10;;;;;;5053059;28;20894;-61
2021/05/10 04:33:00;;;;;;;1.87;1.70;;;18.40;96.80;;;;;;5053028;28;20167;-61
2021/05/10 04:35:25;;;;;;;1.83;1.70;;;18.70;95.30;;;;;;5052931;28;20194;-61
2021/05/10 04:37:51;;;;;;;3.30;1.90;;;18.90;94.80;;;;;;5048121;28;20210;-60
2021/05/10 04:40:17;;;;;;;2.43;2.00;;;19.20;94.00;;;;;;5052839;28;20204;-61
2021/05/10 04:42:43;;;;;;;2.30;2.10;;;19.40;94.60;;;;;;5052716;28;20166;-62
2021/05/10 04:45:09;;;;;;;4.07;1.70;;;19.50;94.70;;;;;;5052970;28;20233;-62
2021/05/10 04:47:38;;;;;;;3.07;1.93;;;19.40;94.60;;;;;;5053208;28;20174;-62
2021/05/10 04:50:06;;;;;;;1.93;1.83;;;19.50;95.10;;;;;;5052431;28;20475;-62
2021/05/10 04:52:31;;;;;;;3.10;2.33;;;19.60;95.20;;;;;;5053001;28;20412;-61
2021/05/10 04:54:57;;;;;;;3.90;2.20;;;19.50;95.50;;;;;;5073397;28;20400;-60
2021/05/10 04:57:22;;;;;;;3.77;2.40;;;19.60;96.00;;;;;;5060972;28;20530;-61
2021/05/10 04:59:48;;;;;;;2.93;2.07;;;19.60;95.00;;;;;;5052323;28;20658;-61
2021/05/10 05:02:14;;;;;;;3.03;2.47;;;19.90;93.90;;;;;;5052731;28;20190;-61
2021/05/10 05:04:39;;;;;;;3.30;1.70;;;20.10;95.10;;;;;;5052998;28;20178;-60
2021/05/10 05:07:05;;;;;;;2.83;2.20;;;20.30;94.80;;;;;;5052338;28;20245;-60
2021/05/10 05:09:30;;;;;;;3.23;2.00;;;20.40;95.20;;;;;;5052311;28;20571;-59
2021/05/10 05:11:56;;;;;;;3.73;2.13;;;20.40;93.60;;;;;;5052549;28;20189;-59
2021/05/10 05:14:21;;;;;;;2.23;2.03;;;20.40;95.30;;;;;;5052579;28;20281;-59
2021/05/10 05:16:47;;;;;;;3.63;2.00;;;20.40;95.50;;;;;;5052577;28;20635;-62
2021/05/10 05:19:12;;;;;;;2.53;1.80;;;20.40;95.70;;;;;;5048100;28;20187;-62
2021/05/10 05:21:38;;;;;;;2.20;1.90;;;20.50;96.50;;;;;;5055076;28;20179;-62
2021/05/10 05:24:04;;;;;;;2.23;2.00;;;20.40;97.20;;;;;;5056821;28;20173;-61
2021/05/10 05:26:30;;;;;;;2.70;1.97;;;20.40;97.30;;;;;;5057112;28;20230;-60
2021/05/10 05:28:55;;;;;;;3.90;1.90;;;20.20;98.10;;;;;;5055851;28;20901;-59
2021/05/10 05:31:22;;;;;;;3.10;1.73;;;19.90;98.10;;;;;;5038467;28;20249;-62
2021/05/10 05:33:48;;;;;;;3.20;2.00;;;20.10;98.70;;;;;;5055644;28;20167;-61
2021/05/10 05:36:13;;;;;;;3.60;2.23;;;20.10;98.40;;;;;;5055816;28;20545;-61
2021/05/10 05:38:40;;;;;;;2.50;2.20;;;20.10;98.80;;;;;;5059990;28;20177;-60
2021/05/10 05:41:06;;;;;;;5.37;2.87;;;20.10;99.60;;;;;;5075992;28;20162;-60
2021/05/10 05:43:32;;;;;;;5.03;3.00;;;19.90;99.60;;;;;;5075905;28;20883;-61
2021/05/10 05:45:58;;;;;;;2.60;2.07;;;20.10;99.40;;;;;;5075943;28;20553;-61
2021/05/10 05:48:23;;;;;;;5.20;2.33;;;20.10;98.70;;;;;;5075699;28;20259;-61
2021/05/10 05:50:49;;;;;;;2.70;2.10;;;20.30;98.30;;;;;;5057854;28;20210;-60
2021/05/10 05:53:15;;;;;;;4.00;1.83;;;20.50;99.40;;;;;;5055692;28;20250;-61
2021/05/10 05:55:41;;;;;;;3.20;2.70;;;20.30;98.70;;;;;;5055652;28;20189;-61
2021/05/10 05:58:06;;;;;;;4.30;2.20;;;20.40;98.40;;;;;;5050844;28;20181;-61
2021/05/10 06:00:32;;;;;;;2.70;2.20;;;20.70;97.70;;;;;;5055576;28;20437;-61
2021/05/10 06:02:58;;;;;;;5.37;4.10;;;20.90;96.20;;;;;;5055510;28;20244;-61
2021/05/10 06:05:24;;;;;;;5.53;4.70;;;21.10;97.30;;;;;;5063578;28;20174;-61
2021/05/10 06:07:51;;;;;;;4.93;3.93;;;21.10;98.60;;;;;;5075176;28;20402;-61
2021/05/10 06:10:24;;;;;;;5.17;3.20;;;20.90;99.20;;;;;;5064776;28;20207;-61
2021/05/10 06:12:51;;;;;;;5.27;3.53;;;20.90;98.40;;;;;;5043835;28;20413;-60
2021/05/10 06:15:21;;;;;;;3.77;2.30;;;21.00;98.80;;;;;;5035632;28;20447;-60
2021/05/10 06:17:48;;;;;;;3.10;2.50;;;21.00;99.30;;;;;;5054117;28;20454;-59
2021/05/10 06:20:15;;;;;;;4.60;2.20;;;21.10;98.90;;;;;;5055201;28;20437;-61
2021/05/10 06:22:41;;;;;;;3.73;2.70;;;21.00;99.70;;;;;;5055065;28;20401;-60
2021/05/10 06:25:09;;;;;;;4.90;2.60;;;21.00;99.00;;;;;;5055420;28;20432;-60
2021/05/10 06:27:35;;;;;;;6.07;3.13;;;21.00;99.40;;;;;;5054520;28;20433;-61
2021/05/10 06:30:01;;;;;;;5.67;3.90;;;21.10;99.90;;;;;;5055093;28;20441;-61
2021/05/10 06:32:26;;;;;;;14.27;5.50;;;20.90;97.30;;;;;;5054044;28;20401;-61
2021/05/10 06:34:52;;;;;;;7.43;4.53;;;20.60;97.10;;;;;;5054888;28;20159;-61
2021/05/10 06:37:20;;;;;;;9.33;4.87;;;20.40;96.50;;;;;;5054647;28;20190;-61
2021/05/10 06:39:49;;;;;;;4.60;3.50;;;20.70;96.50;;;;;;5050850;28;20236;-61
2021/05/10 06:42:15;;;;;;;5.27;3.37;;;20.90;95.70;;;;;;5035041;28;20409;-59
2021/05/10 06:44:41;;;;;;;7.17;4.17;;;21.00;96.10;;;;;;5042690;28;20432;-61
2021/05/10 06:47:07;;;;;;;5.13;2.90;;;21.40;96.00;;;;;;5054704;28;20437;-61
2021/05/10 06:49:33;;;;;;;5.17;3.20;;;21.60;95.40;;;;;;5077358;22;20210;-59
2021/05/10 06:51:59;;;;;;;3.53;3.07;;;21.80;94.90;;;;;;5035071;28;20592;-61
2021/05/10 06:54:24;;;;;;;5.20;2.50;;;22.20;93.30;;;;;;5034988;28;20394;-61
2021/05/10 06:56:51;;;;;;;5.13;2.97;;;22.50;93.30;;;;;;5033376;28;20167;-61
2021/05/10 06:59:18;;;;;;;7.27;3.00;;;22.80;94.20;;;;;;5034133;28;20201;-61
2021/05/10 07:01:43;;;;;;;11.40;2.70;;;23.00;95.10;;;;;;5034479;28;20424;-61
2021/05/10 07:04:09;;;;;;;5.20;2.73;;;23.20;94.00;;;;;;5035045;28;20489;-62
2021/05/10 07:06:34;;;;;;;7.57;2.60;;;23.20;91.80;;;;;;5034457;28;20163;-62
2021/05/10 07:09:00;;;;;;;6.27;3.13;;;23.00;91.50;;;;;;5034740;28;20174;-62
2021/05/10 07:11:26;;;;;;;3.13;2.40;;;23.10;90.50;;;;;;5034621;28;20211;-62
2021/05/10 07:13:51;;;;;;;7.63;3.20;;;23.40;91.40;;;;;;5034690;28;20247;-60
2021/05/10 07:16:17;;;;;;;4.10;2.47;;;23.50;91.30;;;;;;5035043;28;20159;-61
2021/05/10 07:18:42;;;;;;;2.90;1.97;;;23.40;90.40;;;;;;5024657;28;20663;-61
2021/05/10 07:21:08;;;;;;;3.80;2.40;;;23.10;89.40;;;;;;5027976;28;20206;-61
2021/05/10 07:23:35;;;;;;;5.77;2.20;;;22.90;90.20;;;;;;5035030;28;20229;-60
2021/05/10 07:26:01;;;;;;;4.57;2.30;;;22.80;89.90;;;;;;5034238;28;20255;-61
2021/05/10 07:28:26;;;;;;;5.60;2.30;;;22.90;90.50;;;;;;5033681;28;20442;-60
2021/05/10 07:30:52;;;;;;;3.67;2.40;;;23.00;90.30;;;;;;5034136;28;20207;-60
2021/05/10 07:33:18;;;;;;;7.83;2.80;;;23.20;90.20;;;;;;5026594;28;20313;-62
2021/05/10 07:35:43;;;;;;;4.93;2.57;;;23.20;90.00;;;;;;5014217;28;20164;-62
2021/05/10 07:38:09;;;;;;;6.70;2.80;;;23.50;91.10;;;;;;4996901;28;20180;-56
2021/05/10 07:40:35;;;;;;;3.20;2.53;;;23.40;90.90;;;;;;5014390;28;20660;-56
2021/05/10 07:43:01;;;;;;;3.57;2.03;;;23.00;91.30;;;;;;5013690;28;20407;-58
2021/05/10 07:45:28;;;;;;;4.00;2.30;;;23.10;91.30;;;;;;5014852;28;20465;-57
2021/05/10 07:47:54;;;;;;;3.00;2.40;;;23.20;91.30;;;;;;5014593;28;20497;-58
2021/05/10 07:50:21;;;;;;;7.10;3.13;;;23.00;91.20;;;;;;5024122;28;20465;-58
2021/05/10 07:52:46;;;;;;;4.23;2.47;;;22.90;92.50;;;;;;5034473;28;20493;-58
2021/05/10 07:55:12;;;;;;;4.40;2.20;;;22.80;92.30;;;;;;5034196;28;20421;-56
2021/05/10 07:57:38;;;;;;;4.23;1.90;;;22.90;92.20;;;;;;5034066;28;20159;-59
2021/05/10 08:00:07;;;;;;;4.13;2.50;;;23.00;92.20;;;;;;5033883;28;20187;-55
2021/05/10 08:02:33;;;;;;;9.27;2.33;;;23.00;92.30;;;;;;5033901;28;20190;-59
2021/05/10 08:04:59;;;;;;;3.60;2.00;;;23.00;92.40;;;;;;5033752;28;20937;-57
2021/05/10 08:07:24;;;;;;;2.37;2.17;;;23.00;92.70;;;;;;5033921;28;20402;-57
2021/05/10 08:09:50;;;;;;;2.97;2.40;;;23.10;93.40;;;;;;5033662;28;20199;-53
2021/05/10 08:12:15;;;;;;;4.83;2.40;;;23.00;93.10;;;;;;5034507;28;20174;-58
2021/05/10 08:14:41;;;;;;;5.47;2.70;;;22.90;93.70;;;;;;5033661;28;20243;-61
2021/05/10 08:17:07;;;;;;;3.50;3.20;;;22.90;93.20;;;;;;5033787;28;20163;-58
2021/05/10 08:19:33;;;;;;;4.10;2.30;;;22.80;93.70;;;;;;5033852;28;20171;-58
2021/05/10 08:21:59;;;;;;;4.83;2.57;;;22.80;94.10;;;;;;5033673;28;20778;-56
2021/05/10 08:24:25;;;;;;;3.57;2.00;;;22.90;94.00;;;;;;5033899;28;20221;-58
2021/05/10 08:26:51;;;;;;;5.27;2.40;;;23.00;94.00;;;;;;5033715;28;20402;-57
2021/05/10 08:29:17;;;;;;;7.90;2.60;;;23.50;93.40;;;;;;5033440;28;20791;-58
2021/05/10 08:31:46;;;;;;;2.67;2.40;;;23.40;93.50;;;;;;5032224;28;20194;-55
2021/05/10 08:34:12;;;;;;;3.80;2.50;;;23.40;93.20;;;;;;5033589;28;20914;-57
2021/05/10 08:36:39;;;;;;;3.87;2.37;;;23.30;93.20;;;;;;5033373;28;20414;-56
2021/05/10 08:39:08;;;;;;;3.47;2.70;;;23.40;93.30;;;;;;5033674;28;20406;-56
2021/05/10 08:41:37;;;;;;;2.90;2.10;;;23.30;93.40;;;;;;5033749;28;20483;-57
2021/05/10 08:44:08;;;;;;;4.23;2.47;;;23.40;93.50;;;;;;5033044;28;20405;-54
2021/05/10 08:46:35;;;;;;;2.70;2.33;;;23.10;94.00;;;;;;5034824;28;20437;-53
2021/05/10 08:49:01;;;;;;;2.70;2.30;;;23.20;94.10;;;;;;5033435;28;20424;-55
2021/05/10 08:51:29;;;;;;;3.33;2.03;;;23.40;94.10;;;;;;5032894;28;20833;-58
2021/05/10 08:53:55;;;;;;;2.90;2.10;;;23.50;94.00;;;;;;5033528;28;20406;-58
2021/05/10 08:56:21;;;;;;;5.30;2.43;;;23.40;93.80;;;;;;5022760;28;22012;-57
2021/05/10 08:58:48;;;;;;;6.07;2.33;;;23.20;94.20;;;;;;5035669;28;20159;-57
2021/05/10 09:01:20;;;;;;;3.30;2.30;;;23.10;94.40;;;;;;5036951;28;20201;-57
2021/05/10 09:03:47;;;;;;;4.60;2.40;;;23.00;94.10;;;;;;5032195;28;20933;-63
2021/05/10 09:06:29;;;;;;;5.53;2.87;;;22.80;94.50;;;;;;5021756;28;20411;-61
2021/05/10 09:09:04;;;;;;;6.10;2.40;;;22.80;94.50;;;;;;5017593;28;20486;-61
2021/05/10 09:11:30;;;;;;;3.70;2.37;;;22.80;94.70;;;;;;5015800;28;20465;-61
2021/05/10 09:13:58;;;;;;;3.80;2.20;;;22.80;94.60;;;;;;5017282;28;20771;-62
2021/05/10 09:16:24;;;;;;;3.77;2.30;;;23.00;94.70;;;;;;5017574;28;20160;-60
2021/05/10 09:18:51;;;;;;;4.90;2.43;;;23.30;94.30;;;;;;5016989;28;20406;-62
2021/05/10 09:21:20;;;;;;;4.80;2.60;;;23.10;94.60;;;;;;5031416;28;20429;-63
2021/05/10 09:23:46;;;;;;;3.30;2.47;;;23.10;94.60;;;;;;5036572;28;20456;-62
2021/05/10 09:26:12;;;;;;;4.63;2.37;;;23.10;94.30;;;;;;5037143;28;20898;-61
2021/05/10 09:28:42;;;;;;;3.43;2.70;;;22.90;94.40;;;;;;5037325;28;20242;-62
2021/05/10 09:31:11;;;;;;;4.13;2.40;;;22.80;95.10;;;;;;5036349;28;20454;-61
2021/05/10 09:33:46;;;;;;;3.23;2.80;;;23.10;95.30;;;;;;5036868;28;20433;-61
2021/05/10 09:36:30;;;;;;;4.57;2.43;;;23.10;94.80;;;;;;5036494;28;20475;-61
2021/05/10 09:38:56;;;;;;;3.80;2.73;;;23.10;94.80;;;;;;5036894;28;20467;-61
2021/05/10 09:41:22;;;;;;;4.40;2.60;;;22.90;95.20;;;;;;5018568;28;20472;-61
2021/05/10 09:43:57;;;;;;;5.13;2.50;;;22.60;96.00;;;;;;5035991;28;20201;-61
2021/05/10 09:46:23;;;;;;;3.10;1.90;;;22.70;95.80;;;;;;5037005;28;20247;-62
2021/05/10 09:48:48;;;;;;;3.03;2.17;;;22.90;95.70;;;;;;5036523;28;20440;-61
2021/05/10 09:51:15;;;;;;;2.60;2.00;;;22.90;95.80;;;;;;5035529;28;20687;-58
2021/05/10 09:53:52;;;;;;;2.20;1.90;;;23.10;95.60;;;;;;5036197;28;20213;-59
2021/05/10 09:59:04;;;;;;;1.60;1.50;;;23.20;95.00;;;;;;5022832;28;20471;-55
2021/05/10 10:01:39;;;;;;;5.20;1.70;;;23.00;94.70;;;;;;5016614;28;20430;-58
2021/05/10 10:04:05;;;;;;;2.80;1.60;;;23.10;95.30;;;;;;5015098;28;20532;-58
2021/05/10 10:06:31;;;;;;;2.07;1.60;;;23.40;94.30;;;;;;5027572;28;20440;-59
2021/05/10 10:08:57;;;;;;;6.57;1.57;;;23.50;93.70;;;;;;5036165;28;20258;-54
2021/05/10 10:11:24;;;;;;;2.50;1.20;;;23.50;93.70;;;;;;5035996;28;20575;-59
2021/05/10 10:13:52;;;;;;;2.60;1.43;;;23.30;93.40;;;;;;5032414;28;20414;-58
2021/05/10 10:16:20;;;;;;;2.20;1.33;;;23.30;93.10;;;;;;5014659;28;20761;-58
2021/05/10 10:18:47;;;;;;;3.23;1.20;;;23.40;93.10;;;;;;5020407;28;20473;-58
2021/05/10 10:21:15;;;;;;;2.10;1.20;;;23.50;92.70;;;;;;5029697;28;20441;-57
2021/05/10 10:23:41;;;;;;;2.40;1.50;;;23.20;92.30;;;;;;5015496;28;20407;-58
2021/05/10 10:26:11;;;;;;;2.17;1.20;;;23.10;92.90;;;;;;5015922;28;20891;-58
2021/05/10 10:28:38;;;;;;;1.30;1.03;;;23.60;92.70;;;;;;5024710;28;20784;-59
2021/05/10 10:31:17;;;;;;;1.60;1.10;;;24.00;92.00;;;;;;5013384;28;20473;-56
2021/05/10 10:34:03;;;;;;;2.30;1.00;;;24.00;91.70;;;;;;5021938;28;20403;-56
2021/05/10 10:36:32;;;;;;;1.77;1.17;;;23.70;91.80;;;;;;4997213;28;20414;-56
2021/05/10 10:39:21;;;;;;;1.40;0.90;;;23.90;91.60;;;;;;5014867;28;20411;-58
2021/05/10 10:41:52;;;;;;;2.43;1.20;;;24.00;92.10;;;;;;5015700;28;20400;-54
2021/05/10 10:44:39;;;;;;;2.17;1.00;;;24.00;91.70;;;;;;5015192;28;20421;-58
2021/05/10 10:47:06;;;;;;;2.23;1.13;;;23.80;92.40;;;;;;5015518;28;20391;-56
2021/05/10 10:49:40;;;;;;;1.63;1.17;;;23.70;92.50;;;;;;5018674;28;20457;-58
2021/05/10 10:52:24;;;;;;;1.47;1.00;;;23.50;92.30;;;;;;5033402;28;20409;-58
2021/05/10 10:55:11;;;;;;;1.30;1.00;;;23.30;92.50;;;;;;5034009;28;20402;-54
2021/05/10 10:57:37;;;;;;;3.10;1.20;;;23.10;92.80;;;;;;5014042;28;20418;-58
2021/05/10 11:00:03;;;;;;;7.53;1.13;;;23.40;92.70;;;;;;5013591;28;20525;-56
2021/05/10 11:02:44;;;;;;;2.40;1.20;;;23.40;92.40;;;;;;5014552;28;20184;-57
2021/05/10 11:05:21;;;;;;;1.60;1.40;;;23.60;92.80;;;;;;5016060;28;20445;-58
2021/05/10 11:07:47;;;;;;;2.33;1.00;;;23.60;92.80;;;;;;5027235;28;20441;-56
2021/05/10 11:10:12;;;;;;;1.60;1.40;;;23.70;92.30;;;;;;5035091;28;20981;-57
2021/05/10 11:12:56;;;;;;;3.53;1.20;;;23.30;92.80;;;;;;5023823;28;20179;-57
2021/05/10 11:15:41;;;;;;;2.00;1.37;;;23.10;93.60;;;;;;5013285;28;20705;-58
2021/05/10 11:18:08;;;;;;;2.30;1.60;;;22.80;94.10;;;;;;5016833;28;20441;-57
2021/05/10 11:20:41;;;;;;;7.73;1.70;;;22.80;94.20;;;;;;5000259;28;20443;-56
2021/05/10 11:23:25;;;;;;;4.20;2.30;;;22.50;94.70;;;;;;5014955;28;20419;-58
2021/05/10 11:25:52;;;;;;;2.93;1.40;;;22.40;94.50;;;;;;5015017;28;20415;-57
2021/05/10 11:28:27;;;;;;;2.23;1.27;;;22.40;94.90;;;;;;5014354;28;20415;-58
2021/05/10 11:31:10;;;;;;;2.00;1.40;;;22.60;94.50;;;;;;5013661;28;20985;-59
2021/05/10 11:34:02;;;;;;;2.10;1.40;;;22.60;94.70;;;;;;5014052;28;20414;-58
2021/05/10 11:36:36;;;;;;;2.47;1.23;;;22.50;94.40;;;;;;5014627;28;20387;-56
2021/05/10 11:39:11;;;;;;;2.87;1.60;;;22.30;94.40;;;;;;5014436;28;20406;-56
2021/05/10 11:41:44;;;;;;;2.17;1.30;;;22.20;94.00;;;;;;5023697;28;20417;-58
2021/05/10 11:44:18;;;;;;;2.50;1.10;;;22.20;94.50;;;;;;5033967;28;20394;-58
2021/05/10 11:46:49;;;;;;;2.30;0.90;;;22.40;94.00;;;;;;5032732;28;20430;-58
2021/05/10 11:49:34;;;;;;;4.23;1.20;;;22.30;94.00;;;;;;5013720;28;20964;-57
2021/05/10 11:52:12;;;;;;;3.03;0.97;;;22.00;93.30;;;;;;5020435;28;20419;-58
2021/05/10 11:55:05;;;;;;;1.07;0.97;;;22.00;93.70;;;;;;5014686;28;20437;-59
2021/05/10 11:57:35;;;;;;;1.70;0.83;;;21.70;93.50;;;;;;5025212;28;20466;-58
2021/05/10 12:00:10;;;;;;;2.60;1.40;;;21.70;93.10;;;;;;5013933;28;20461;-58
2021/05/10 12:02:36;;;;;;;1.23;0.97;;;21.80;93.00;;;;;;5017093;28;20425;-57
2021/05/10 12:05:07;;;;;;;2.37;0.87;;;22.00;93.00;;;;;;5015243;28;20498;-57
2021/05/10 12:07:34;;;;;;;1.33;1.03;;;22.00;93.00;;;;;;5012574;28;20188;-58
2021/05/10 12:10:04;;;;;;;1.70;0.80;;;21.80;93.10;;;;;;5013891;28;20875;-57
2021/05/10 12:12:31;;;;;;;1.63;1.10;;;21.80;93.00;;;;;;5014576;28;20850;-57
2021/05/10 12:15:10;;;;;;;3.20;1.00;;;21.90;93.40;;;;;;5013302;28;20435;-58
2021/05/10 12:17:37;;;;;;;1.10;1.00;;;21.80;93.70;;;;;;5013769;28;20409;-58
2021/05/10 12:20:06;;;;;;;2.33;1.03;;;21.80;93.90;;;;;;5022228;28;20994;-56
2021/05/10 12:22:44;;;;;;;4.50;1.00;;;22.00;93.90;;;;;;5019761;28;20417;-58
2021/05/10 12:25:24;;;;;;;3.83;1.57;;;21.80;93.80;;;;;;5013709;28;20407;-57
2021/05/10 12:28:02;;;;;;;1.83;0.90;;;21.90;94.00;;;;;;5012835;28;20442;-56
2021/05/10 12:30:44;;;;;;;1.77;0.77;;;22.00;93.40;;;;;;5023390;28;20545;-58
2021/05/10 12:33:27;;;;;;;2.90;2.13;;;21.80;93.30;;;;;;5014334;28;20395;-55
2021/05/10 12:36:02;;;;;;;2.07;0.70;;;21.40;93.50;;;;;;5012880;28;20989;-57
2021/05/10 12:38:30;;;;;;;1.00;0.80;;;21.30;93.20;;;;;;5021856;28;20783;-56
2021/05/10 12:40:56;;;;;;;0.80;0.63;;;21.40;93.00;;;;;;5033305;28;20480;-58
2021/05/10 12:43:24;;;;;;;1.00;0.70;;;21.40;93.10;;;;;;5033716;28;20945;-58
2021/05/10 12:46:02;;;;;;;0.90;0.63;;;21.30;92.80;;;;;;5033236;28;20414;-53
2021/05/10 12:48:34;;;;;;;0.90;0.70;;;21.30;92.90;;;;;;5022991;28;20423;-54
2021/05/10 12:51:03;;;;;;;4.23;0.60;;;21.40;93.20;;;;;;5061113;22;20503;-61
2021/05/10 12:53:45;;;;;;;1.77;0.70;;;21.30;92.50;;;;;;5072350;28;20405;-60
2021/05/10 12:56:15;;;;;;;1.07;0.70;;;21.40;92.20;;;;;;5070084;28;20408;-60
2021/05/10 12:58:43;;;;;;;1.30;0.63;;;21.60;91.90;;;;;;5071746;28;20487;-61
2021/05/10 13:01:23;;;;;;;0.93;0.63;;;21.60;91.90;;;;;;5044834;28;20425;-62
2021/05/10 13:03:59;;;;;;;4.73;0.73;;;21.60;91.90;;;;;;5034144;28;20556;-61
2021/05/10 13:06:26;;;;;;;2.93;0.60;;;21.40;92.10;;;;;;5051078;28;20403;-61
2021/05/10 13:08:52;;;;;;;0.80;0.60;;;21.40;92.00;;;;;;5051137;28;20928;-62